createdAt,value
2023-05-03T00:00:37.446Z,1.15
2023-05-03T00:03:07.169Z,1.30
2023-05-03T00:05:34.718Z,1.40
2023-05-03T00:08:03.723Z,1.23
2023-05-03T00:10:31.015Z,1.35
2023-05-03T00:13:49.483Z,1.55
2023-05-03T00:16:41.861Z,1.30
2023-05-03T00:19:56.821Z,1.58
2023-05-03T00:22:24.149Z,1.60
2023-05-03T00:24:51.703Z,1.63
2023-05-03T00:27:19.549Z,1.13
2023-05-03T00:29:47.318Z,1.40
2023-05-03T00:32:14.855Z,1.33
2023-05-03T00:34:42.054Z,1.27
2023-05-03T00:37:09.662Z,1.30
2023-05-03T00:39:36.981Z,1.40
2023-05-03T00:42:05.102Z,1.38
2023-05-03T00:44:51.980Z,1.50
2023-05-03T00:47:20.988Z,1.35
2023-05-03T00:49:48.513Z,1.30
2023-05-03T00:52:16.788Z,1.27
2023-05-03T00:54:44.442Z,1.60
2023-05-03T00:57:12.096Z,1.30
2023-05-03T00:59:40.108Z,1.40
2023-05-03T01:02:08.443Z,1.40
2023-05-03T01:04:40.486Z,1.17
2023-05-03T01:07:24.344Z,1.33
2023-05-03T01:10:26.103Z,1.30
2023-05-03T01:12:57.179Z,1.40
2023-05-03T01:15:55.317Z,1.50
2023-05-03T01:18:27.423Z,1.50
2023-05-03T01:20:56.837Z,1.33
2023-05-03T01:23:48.930Z,1.30
2023-05-03T01:26:24.620Z,1.45
2023-05-03T01:28:54.225Z,1.35
2023-05-03T01:31:52.796Z,1.25
2023-05-03T01:34:43.103Z,1.27
2023-05-03T01:37:42.198Z,1.48
2023-05-03T01:40:11.372Z,1.52
2023-05-03T01:42:39.446Z,1.35
2023-05-03T01:45:07.371Z,1.60
2023-05-03T01:47:34.829Z,1.17
2023-05-03T01:50:02.200Z,1.33
2023-05-03T01:52:30.470Z,1.50
2023-05-03T01:54:57.846Z,1.52
2023-05-03T01:57:24.822Z,1.70
2023-05-03T01:59:51.742Z,1.58
2023-05-03T02:02:18.644Z,1.30
2023-05-03T02:04:45.825Z,1.30
2023-05-03T02:07:12.852Z,1.50
2023-05-03T02:09:39.742Z,1.50
2023-05-03T02:12:07.092Z,1.90
2023-05-03T02:14:34.194Z,1.45
2023-05-03T02:17:03.261Z,1.55
2023-05-03T02:19:30.448Z,1.63
2023-05-03T02:21:57.372Z,1.70
2023-05-03T02:24:24.344Z,1.42
2023-05-03T02:26:51.430Z,1.70
2023-05-03T02:29:18.478Z,1.92
2023-05-03T02:31:45.785Z,1.50
2023-05-03T02:34:12.825Z,1.65
2023-05-03T02:36:39.742Z,1.67
2023-05-03T02:39:06.856Z,1.80
2023-05-03T02:41:33.872Z,1.20
2023-05-03T02:44:00.969Z,1.27
2023-05-03T02:46:28.057Z,1.30
2023-05-03T02:48:55.019Z,1.30
2023-05-03T02:51:22.015Z,1.55
2023-05-03T02:53:49.222Z,1.35
2023-05-03T02:56:16.185Z,1.20
2023-05-03T02:58:43.094Z,1.33
2023-05-03T03:01:11.717Z,1.70
2023-05-03T03:03:38.905Z,1.52
2023-05-03T03:06:06.126Z,1.55
2023-05-03T03:08:36.828Z,1.50
2023-05-03T03:11:05.828Z,1.10
2023-05-03T03:13:33.267Z,1.25
2023-05-03T03:16:01.672Z,1.27
2023-05-03T03:18:28.547Z,1.10
2023-05-03T03:20:55.502Z,1.67
2023-05-03T03:23:22.703Z,1.25
2023-05-03T03:25:49.602Z,1.10
2023-05-03T03:28:16.780Z,1.05
2023-05-03T03:30:44.819Z,1.40
2023-05-03T03:33:24.637Z,1.40
2023-05-03T03:35:54.795Z,1.55
2023-05-03T03:38:25.701Z,1.40
2023-05-03T03:40:58.650Z,1.20
2023-05-03T03:43:26.294Z,1.55
2023-05-03T03:45:54.175Z,1.10
2023-05-03T03:48:21.270Z,1.50
2023-05-03T03:50:49.113Z,1.40
2023-05-03T03:53:16.200Z,1.35
2023-05-03T03:55:43.766Z,1.50
2023-05-03T03:58:11.156Z,1.70
2023-05-03T04:00:38.629Z,1.60
2023-05-03T04:03:12.272Z,1.88
2023-05-03T04:05:39.396Z,1.58
2023-05-03T04:08:06.683Z,1.58
2023-05-03T04:10:35.939Z,1.58
2023-05-03T04:13:03.212Z,1.60
2023-05-03T04:15:30.151Z,1.30
2023-05-03T04:17:59.548Z,1.20
2023-05-03T04:20:27.106Z,1.38
2023-05-03T04:22:54.548Z,1.23
2023-05-03T04:25:26.857Z,1.38
2023-05-03T04:28:01.113Z,1.20
2023-05-03T04:30:29.590Z,1.42
2023-05-03T04:33:00.833Z,1.45
2023-05-03T04:35:30.088Z,1.25
2023-05-03T04:37:59.230Z,1.35
2023-05-03T04:40:27.779Z,1.35
2023-05-03T04:43:02.574Z,1.40
2023-05-03T04:45:31.990Z,1.50
2023-05-03T04:47:59.362Z,1.27
2023-05-03T04:50:26.600Z,1.40
2023-05-03T04:52:54.181Z,1.40
2023-05-03T04:55:23.619Z,1.13
2023-05-03T04:57:52.122Z,1.60
2023-05-03T05:00:19.233Z,1.30
2023-05-03T05:02:52.637Z,1.38
2023-05-03T05:05:20.678Z,1.50
2023-05-03T05:07:48.153Z,1.40
2023-05-03T05:10:15.901Z,1.50
2023-05-03T05:12:43.061Z,1.50
2023-05-03T05:15:10.476Z,1.50
2023-05-03T05:17:37.634Z,1.52
2023-05-03T05:20:08.004Z,1.13
2023-05-03T05:22:34.979Z,1.30
2023-05-03T05:25:02.191Z,1.45
2023-05-03T05:27:29.853Z,1.25
2023-05-03T05:29:59.115Z,1.45
2023-05-03T05:32:26.111Z,1.33
2023-05-03T05:34:55.524Z,1.20
2023-05-03T05:39:53.707Z,1.38
2023-05-03T05:42:23.161Z,1.42
2023-05-03T05:44:52.374Z,1.60
2023-05-03T05:47:20.389Z,1.38
2023-05-03T05:49:49.741Z,1.77
2023-05-03T05:52:16.887Z,1.40
2023-05-03T05:54:43.930Z,1.27
2023-05-03T05:57:12.576Z,1.40
2023-05-03T05:59:39.721Z,1.80
2023-05-03T06:02:14.834Z,2.00
2023-05-03T06:04:42.169Z,1.70
2023-05-03T06:07:09.110Z,1.60
2023-05-03T06:09:35.998Z,1.80
2023-05-03T06:12:04.557Z,1.85
2023-05-03T06:14:33.288Z,2.20
2023-05-03T06:17:00.731Z,1.55
2023-05-03T06:19:28.524Z,1.83
2023-05-03T06:21:55.412Z,2.22
2023-05-03T06:24:22.709Z,2.38
2023-05-03T06:26:53.335Z,2.50
2023-05-03T06:29:20.851Z,2.60
2023-05-03T06:31:47.857Z,2.58
2023-05-03T06:34:20.153Z,2.15
2023-05-03T06:39:14.347Z,2.13
2023-05-03T06:41:41.267Z,2.20
2023-05-03T06:44:08.492Z,2.20
2023-05-03T06:46:35.714Z,2.40
2023-05-03T06:49:03.931Z,2.53
2023-05-03T06:51:33.089Z,2.53
2023-05-03T06:54:06.594Z,2.08
2023-05-03T06:56:36.774Z,1.80
2023-05-03T06:59:04.006Z,2.03
2023-05-03T07:01:34.395Z,2.50
2023-05-03T07:04:01.468Z,1.90
2023-05-03T07:06:28.506Z,2.45
2023-05-03T07:08:55.562Z,2.25
2023-05-03T07:11:25.910Z,2.15
2023-05-03T07:13:56.123Z,2.58
2023-05-03T07:16:25.507Z,2.38
2023-05-03T07:18:52.511Z,2.50
2023-05-03T07:21:19.362Z,2.35
2023-05-03T07:23:46.341Z,2.40
2023-05-03T07:26:13.291Z,2.45
2023-05-03T07:28:40.274Z,2.03
2023-05-03T07:31:07.246Z,2.13
2023-05-03T07:33:35.609Z,2.50
2023-05-03T07:36:02.822Z,2.55
2023-05-03T07:38:29.850Z,2.47
2023-05-03T07:40:56.881Z,2.38
2023-05-03T07:43:23.791Z,2.58
2023-05-03T07:45:50.823Z,2.60
2023-05-03T07:48:17.843Z,2.65
2023-05-03T07:50:45.516Z,2.75
2023-05-03T07:53:12.836Z,2.78
2023-05-03T07:55:39.727Z,2.50
2023-05-03T07:58:06.655Z,2.53
2023-05-03T08:00:33.696Z,2.50
2023-05-03T08:03:02.459Z,2.70
2023-05-03T08:05:29.735Z,2.70
2023-05-03T08:07:56.771Z,2.92
2023-05-03T08:10:23.816Z,2.83
2023-05-03T08:12:51.433Z,2.60
2023-05-03T08:15:18.656Z,2.53
2023-05-03T08:17:46.533Z,2.20
2023-05-03T08:20:14.539Z,2.95
2023-05-03T08:22:41.559Z,2.53
2023-05-03T08:25:08.995Z,2.78
2023-05-03T08:27:36.812Z,2.53
2023-05-03T08:30:05.186Z,2.38
2023-05-03T08:32:32.670Z,2.72
2023-05-03T08:34:59.681Z,2.53
2023-05-03T08:37:26.553Z,2.63
2023-05-03T08:39:53.532Z,2.60
2023-05-03T08:42:20.612Z,2.88
2023-05-03T08:44:49.457Z,2.42
2023-05-03T08:47:17.130Z,2.42
2023-05-03T08:49:45.012Z,2.53
2023-05-03T08:52:15.906Z,2.53
2023-05-03T08:54:43.261Z,2.47
2023-05-03T08:57:14.014Z,2.22
2023-05-03T08:59:51.407Z,2.45
2023-05-03T09:02:18.517Z,2.40
2023-05-03T09:04:46.122Z,2.28
2023-05-03T09:07:16.170Z,2.13
2023-05-03T09:09:45.609Z,2.22
2023-05-03T09:12:36.882Z,2.40
2023-05-03T09:15:06.481Z,2.08
2023-05-03T09:17:33.786Z,2.22
2023-05-03T09:20:01.225Z,2.28
2023-05-03T09:22:31.535Z,2.30
2023-05-03T09:25:00.370Z,2.70
2023-05-03T09:27:28.146Z,2.20
2023-05-03T09:29:55.436Z,1.80
2023-05-03T09:32:23.018Z,2.20
2023-05-03T09:34:50.033Z,1.98
2023-05-03T09:37:17.124Z,2.42
2023-05-03T09:39:46.002Z,2.05
2023-05-03T09:42:17.162Z,1.90
2023-05-03T09:44:49.127Z,2.13
2023-05-03T09:47:16.555Z,1.92
2023-05-03T09:49:44.361Z,2.00
2023-05-03T09:52:11.596Z,2.20
2023-05-03T09:54:38.944Z,2.05
2023-05-03T09:57:08.168Z,2.05
2023-05-03T09:59:38.187Z,2.20
2023-05-03T10:02:08.003Z,2.30
2023-05-03T10:04:48.046Z,2.10
2023-05-03T10:07:18.224Z,2.05
2023-05-03T10:09:47.691Z,2.50
2023-05-03T10:12:17.601Z,2.00
2023-05-03T10:14:47.477Z,2.10
2023-05-03T10:17:46.171Z,2.20
2023-05-03T10:20:32.356Z,2.00
2023-05-03T10:23:08.711Z,2.00
2023-05-03T10:25:37.740Z,1.83
2023-05-03T10:28:06.187Z,2.10
2023-05-03T10:30:36.366Z,2.30
2023-05-03T10:33:12.592Z,2.20
2023-05-03T10:35:41.422Z,2.10
2023-05-03T10:38:22.109Z,2.28
2023-05-03T10:40:49.393Z,2.17
2023-05-03T10:43:42.604Z,2.20
2023-05-03T10:46:29.384Z,1.98
2023-05-03T10:49:16.338Z,2.30
2023-05-03T10:51:45.392Z,2.05
2023-05-03T10:54:12.583Z,2.20
2023-05-03T10:56:53.438Z,2.50
2023-05-03T10:59:21.187Z,2.33
2023-05-03T11:01:51.373Z,2.00
2023-05-03T11:04:33.961Z,2.33
2023-05-03T11:07:02.106Z,2.05
2023-05-03T11:09:34.017Z,1.90
2023-05-03T11:12:05.249Z,2.00
2023-05-03T11:14:32.284Z,1.85
2023-05-03T11:16:59.461Z,1.83
2023-05-03T11:19:26.879Z,2.08
2023-05-03T11:21:54.024Z,1.95
2023-05-03T11:24:21.143Z,2.38
2023-05-03T11:26:48.914Z,1.90
2023-05-03T11:29:17.668Z,2.10
2023-05-03T11:31:45.269Z,2.42
2023-05-03T11:34:13.166Z,1.90
2023-05-03T11:36:41.955Z,2.10
2023-05-03T11:39:09.332Z,2.50
2023-05-03T11:41:36.505Z,2.47
2023-05-03T11:44:16.371Z,2.60
2023-05-03T11:46:46.168Z,3.08
2023-05-03T11:49:18.637Z,2.55
2023-05-03T11:51:48.432Z,3.63
2023-05-03T11:54:25.393Z,3.22
2023-05-03T11:56:57.907Z,3.70
2023-05-03T11:59:39.391Z,4.10
2023-05-03T12:02:14.754Z,4.43
2023-05-03T12:07:31.032Z,4.63
2023-05-03T12:12:44.096Z,4.47
2023-05-03T12:15:16.370Z,4.20
2023-05-03T12:17:49.441Z,3.80
2023-05-03T12:22:57.745Z,4.30
2023-05-03T12:25:28.930Z,3.90
2023-05-03T12:28:18.661Z,4.15
2023-05-03T12:30:53.863Z,4.22
2023-05-03T12:33:22.925Z,4.57
2023-05-03T12:35:53.442Z,4.22
2023-05-03T12:38:24.008Z,4.17
2023-05-03T12:40:53.307Z,3.85
2023-05-03T12:43:21.011Z,3.90
2023-05-03T12:45:59.885Z,3.83
2023-05-03T12:48:35.914Z,4.10
2023-05-03T12:51:18.756Z,4.38
2023-05-03T12:53:48.116Z,4.47
2023-05-03T12:56:17.965Z,5.47
2023-05-03T13:02:18.227Z,6.40
2023-05-03T13:04:36.993Z,6.53
2023-05-03T13:07:17.083Z,5.85
2023-05-03T13:12:21.813Z,4.28
2023-05-03T13:14:54.003Z,4.35
2023-05-03T13:17:22.922Z,4.75
2023-05-03T13:19:51.587Z,4.60
2023-05-03T13:22:19.119Z,4.32
2023-05-03T13:24:48.579Z,4.15
2023-05-03T13:27:16.868Z,4.45
2023-05-03T13:30:34.822Z,4.47
2023-05-03T13:33:02.182Z,4.47
2023-05-03T13:35:29.355Z,4.43
2023-05-03T13:37:56.801Z,4.32
2023-05-03T13:40:26.246Z,4.07
2023-05-03T13:42:53.407Z,4.70
2023-05-03T13:45:20.872Z,4.50
2023-05-03T13:48:10.864Z,4.40
2023-05-03T13:50:35.555Z,4.30
2023-05-03T13:53:02.763Z,5.07
2023-05-03T13:55:30.123Z,5.72
2023-05-03T13:57:57.833Z,5.25
2023-05-03T14:00:25.311Z,4.70
2023-05-03T14:03:13.615Z,4.30
2023-05-03T14:05:41.160Z,4.57
2023-05-03T14:08:43.961Z,5.07
2023-05-03T14:11:18.742Z,5.45
2023-05-03T14:13:56.577Z,4.57
2023-05-03T14:19:00.407Z,4.40
2023-05-03T14:22:22.571Z,5.20
2023-05-03T14:24:51.184Z,5.25
2023-05-03T14:30:04.391Z,4.93
2023-05-03T14:32:32.390Z,5.45
2023-05-03T14:35:00.075Z,5.72
2023-05-03T14:37:27.462Z,4.97
2023-05-03T14:39:54.991Z,4.97
2023-05-03T14:42:22.285Z,5.32
2023-05-03T14:44:49.929Z,5.25
2023-05-03T14:47:17.090Z,5.55
2023-05-03T14:49:44.406Z,5.85
2023-05-03T14:52:11.875Z,5.80
2023-05-03T14:54:42.493Z,5.75
2023-05-03T14:57:22.275Z,5.40
2023-05-03T14:59:49.844Z,5.00
2023-05-03T15:02:17.143Z,5.13
2023-05-03T15:04:44.377Z,4.93
2023-05-03T15:07:11.682Z,5.20
2023-05-03T15:09:39.273Z,5.38
2023-05-03T15:12:07.527Z,5.60
2023-05-03T15:14:34.997Z,4.68
2023-05-03T15:17:14.577Z,4.78
2023-05-03T15:19:42.074Z,5.45
2023-05-03T15:22:09.155Z,4.90
2023-05-03T15:24:36.557Z,5.05
2023-05-03T15:27:04.938Z,5.80
2023-05-03T15:29:32.295Z,6.18
2023-05-03T15:31:59.644Z,5.82
2023-05-03T15:34:28.418Z,5.80
2023-05-03T15:37:12.490Z,6.22
2023-05-03T15:42:21.133Z,6.80
2023-05-03T15:44:49.562Z,6.90
2023-05-03T15:47:16.765Z,6.28
2023-05-03T15:49:43.972Z,6.75
2023-05-03T15:52:12.587Z,7.80
2023-05-03T15:54:39.816Z,11.27
2023-05-03T15:57:07.588Z,10.10
2023-05-03T15:59:34.938Z,10.50
2023-05-03T16:02:04.110Z,9.75
2023-05-03T16:04:31.600Z,8.90
2023-05-03T16:06:59.334Z,8.57
2023-05-03T16:09:28.920Z,8.15
2023-05-03T16:11:56.109Z,8.32
2023-05-03T16:14:24.903Z,7.43
2023-05-03T16:16:52.546Z,6.75
2023-05-03T16:19:19.974Z,7.50
2023-05-03T16:21:47.216Z,8.68
2023-05-03T16:24:15.036Z,7.35
2023-05-03T16:26:42.754Z,7.10
2023-05-03T16:29:10.594Z,7.00
2023-05-03T16:31:37.990Z,7.15
2023-05-03T16:34:05.541Z,7.40
2023-05-03T16:36:33.848Z,6.57
2023-05-03T16:39:01.475Z,5.97
2023-05-03T16:41:28.790Z,6.68
2023-05-03T16:43:56.192Z,6.10
2023-05-03T16:46:23.494Z,6.28
2023-05-03T16:48:50.876Z,8.75
2023-05-03T16:51:21.525Z,6.80
2023-05-03T16:53:48.855Z,6.05
2023-05-03T16:56:16.525Z,7.22
2023-05-03T16:58:44.029Z,6.18
2023-05-03T17:01:11.776Z,6.55
2023-05-03T17:03:39.362Z,6.47
2023-05-03T17:06:07.250Z,7.03
2023-05-03T17:08:40.908Z,6.10
2023-05-03T17:11:12.558Z,6.10
2023-05-03T17:16:10.161Z,4.72
2023-05-03T17:18:39.340Z,4.72
2023-05-03T17:21:10.124Z,4.43
2023-05-03T17:23:39.549Z,3.80
2023-05-03T17:26:32.582Z,3.70
2023-05-03T17:28:59.880Z,3.65
2023-05-03T17:31:27.138Z,2.70
2023-05-03T17:33:57.113Z,2.00
2023-05-03T17:36:24.441Z,2.35
2023-05-03T17:38:52.337Z,2.50
2023-05-03T17:41:44.806Z,2.30
2023-05-03T17:44:12.557Z,2.30
2023-05-03T17:46:40.221Z,3.00
2023-05-03T17:49:07.698Z,2.00
2023-05-03T17:51:35.325Z,2.40
2023-05-03T17:54:02.836Z,2.10
2023-05-03T17:56:30.367Z,7.35
2023-05-03T17:58:58.636Z,6.20
2023-05-03T18:01:26.109Z,2.58
2023-05-03T18:03:53.941Z,2.30
2023-05-03T18:06:23.769Z,1.70
2023-05-03T18:08:52.230Z,5.57
2023-05-03T18:11:45.305Z,3.00
2023-05-03T18:14:12.842Z,1.92
2023-05-03T18:16:42.124Z,2.22
2023-05-03T18:19:11.063Z,2.00
2023-05-03T18:21:39.645Z,1.88
2023-05-03T18:24:07.697Z,2.25
2023-05-03T18:26:35.312Z,2.20
2023-05-03T18:29:03.171Z,1.92
2023-05-03T18:31:32.519Z,2.40
2023-05-03T18:34:00.492Z,3.08
2023-05-03T18:36:28.561Z,4.03
2023-05-03T18:38:56.230Z,3.28
2023-05-03T18:41:34.119Z,2.50
2023-05-03T18:44:02.049Z,2.33
2023-05-03T18:46:31.607Z,2.20
2023-05-03T18:49:01.630Z,2.15
2023-05-03T18:51:33.333Z,2.20
2023-05-03T18:54:01.656Z,2.00
2023-05-03T18:56:35.515Z,2.40
2023-05-03T18:59:03.824Z,2.13
2023-05-03T19:01:32.318Z,2.40
2023-05-03T19:04:00.796Z,2.47
2023-05-03T19:06:29.326Z,2.42
2023-05-03T19:08:57.876Z,2.70
2023-05-03T19:11:27.004Z,2.17
2023-05-03T19:13:55.441Z,2.65
2023-05-03T19:16:23.308Z,2.35
2023-05-03T19:18:51.299Z,2.25
2023-05-03T19:21:20.061Z,2.20
2023-05-03T19:23:48.134Z,2.22
2023-05-03T19:26:15.844Z,2.38
2023-05-03T19:28:44.017Z,2.30
2023-05-03T19:31:11.962Z,2.25
2023-05-03T19:33:39.690Z,2.25
2023-05-03T19:36:08.251Z,2.30
2023-05-03T19:38:42.814Z,2.30
2023-05-03T19:41:12.949Z,2.58
2023-05-03T19:43:54.343Z,2.35
2023-05-03T19:46:22.971Z,2.13
2023-05-03T19:48:50.656Z,2.20
2023-05-03T19:51:18.864Z,2.67
2023-05-03T19:53:48.579Z,2.40
2023-05-03T19:56:16.956Z,2.85
2023-05-03T19:58:45.791Z,2.35
2023-05-03T20:01:13.887Z,2.55
2023-05-03T20:03:45.315Z,2.42
2023-05-03T20:06:14.101Z,2.20
2023-05-03T20:08:41.427Z,2.72
2023-05-03T20:11:10.506Z,2.50
2023-05-03T20:14:02.976Z,2.78
2023-05-03T20:16:33.662Z,2.55
2023-05-03T20:19:01.311Z,2.55
2023-05-03T20:21:28.648Z,2.60
2023-05-03T20:23:56.361Z,2.80
2023-05-03T20:26:23.694Z,2.67
2023-05-03T20:29:30.682Z,2.70
2023-05-03T20:32:23.332Z,2.50
2023-05-03T20:34:51.190Z,2.67
2023-05-03T20:38:10.608Z,3.22
2023-05-03T20:40:37.951Z,2.70
2023-05-03T20:43:05.284Z,2.75
2023-05-03T20:45:33.045Z,2.72
2023-05-03T20:48:00.291Z,2.80
2023-05-03T20:50:36.889Z,3.00
2023-05-03T20:53:04.539Z,2.55
2023-05-03T20:55:32.117Z,2.65
2023-05-03T20:58:25.525Z,2.47
2023-05-03T21:00:53.808Z,2.70
2023-05-03T21:03:24.753Z,2.53
2023-05-03T21:06:10.736Z,2.92
2023-05-03T21:08:38.011Z,3.30
2023-05-03T21:11:05.398Z,3.08
2023-05-03T21:13:35.976Z,3.25
2023-05-03T21:16:03.726Z,3.27
2023-05-03T21:18:31.122Z,3.38
2023-05-03T21:20:58.933Z,3.33
2023-05-03T21:23:26.471Z,3.63
2023-05-03T21:25:55.970Z,3.45
2023-05-03T21:28:23.953Z,3.63
2023-05-03T21:30:50.934Z,3.20
2023-05-03T21:33:18.198Z,3.28
2023-05-03T21:35:45.373Z,3.05
2023-05-03T21:38:12.320Z,3.50
2023-05-03T21:40:39.246Z,3.15
2023-05-03T21:43:09.102Z,3.00
2023-05-03T21:45:36.238Z,3.08
2023-05-03T21:48:03.442Z,3.55
2023-05-03T21:50:30.461Z,4.00
2023-05-03T21:52:57.370Z,3.28
2023-05-03T21:55:24.301Z,3.53
2023-05-03T21:57:51.458Z,3.17
2023-05-03T22:00:20.819Z,3.05
2023-05-03T22:02:48.421Z,3.20
2023-05-03T22:05:15.792Z,2.80
2023-05-03T22:07:42.842Z,3.17
2023-05-03T22:10:10.036Z,3.58
2023-05-03T22:12:37.015Z,3.33
2023-05-03T22:15:04.377Z,3.10
2023-05-03T22:17:31.464Z,3.03
2023-05-03T22:19:58.455Z,3.20
2023-05-03T22:22:25.609Z,3.83
2023-05-03T22:24:52.572Z,3.33
2023-05-03T22:27:19.528Z,2.83
2023-05-03T22:29:46.487Z,3.50
2023-05-03T22:32:13.415Z,3.55
2023-05-03T22:34:40.351Z,3.60
2023-05-03T22:37:07.251Z,3.30
2023-05-03T22:39:34.166Z,3.88
2023-05-03T22:42:01.078Z,3.58
2023-05-03T22:44:28.143Z,4.10
2023-05-03T22:46:55.111Z,3.97
2023-05-03T22:49:22.059Z,4.25
2023-05-03T22:51:48.965Z,3.90
2023-05-03T22:54:16.162Z,3.53
2023-05-03T22:56:43.143Z,3.95
2023-05-03T22:59:11.495Z,4.15
2023-05-03T23:01:38.471Z,4.20
2023-05-03T23:04:05.494Z,3.88
2023-05-03T23:06:32.641Z,4.47
2023-05-03T23:09:01.090Z,4.40
2023-05-03T23:11:28.022Z,4.50
2023-05-03T23:13:54.979Z,4.15
2023-05-03T23:16:21.847Z,3.97
2023-05-03T23:18:48.780Z,3.50
2023-05-03T23:21:15.710Z,3.75
2023-05-03T23:23:42.838Z,3.70
2023-05-03T23:26:09.818Z,3.92
2023-05-03T23:28:37.283Z,4.07
2023-05-03T23:31:04.760Z,3.72
2023-05-03T23:33:32.194Z,3.70
2023-05-03T23:35:59.179Z,4.40
2023-05-03T23:38:26.728Z,4.28
2023-05-03T23:40:53.604Z,4.55
2023-05-03T23:43:20.852Z,3.70
2023-05-03T23:45:47.758Z,3.90
2023-05-03T23:48:14.676Z,3.80
2023-05-03T23:50:41.589Z,3.67
2023-05-03T23:53:08.487Z,4.15
2023-05-03T23:55:35.655Z,3.88
2023-05-03T23:58:02.705Z,3.88
